createdAt,value
2019-02-02T00:00:23.955Z,94639.11
2019-02-02T00:02:51.374Z,94632.36
2019-02-02T00:05:18.791Z,94632.63
2019-02-02T00:07:46.202Z,94624.20
2019-02-02T00:10:13.627Z,94638.53
2019-02-02T00:12:41.077Z,94646.83
2019-02-02T00:15:08.475Z,94650.06
2019-02-02T00:17:35.889Z,94652.72
2019-02-02T00:20:03.289Z,94650.31
2019-02-02T00:22:30.687Z,94658.17
2019-02-02T00:24:58.084Z,94658.97
2019-02-02T00:27:25.482Z,94660.41
2019-02-02T00:29:52.886Z,94657.27
2019-02-02T00:32:20.298Z,94658.34
2019-02-02T00:34:47.780Z,94652.12
2019-02-02T00:37:15.179Z,94655.26
2019-02-02T00:39:42.595Z,94657.92
2019-02-02T00:42:09.978Z,94654.42
2019-02-02T00:44:37.372Z,94660.80
2019-02-02T00:47:04.821Z,94666.22
2019-02-02T00:49:32.219Z,94660.24
2019-02-02T00:51:59.864Z,94659.04
2019-02-02T00:54:27.267Z,94660.17
2019-02-02T00:56:54.843Z,94657.98
2019-02-02T00:59:22.303Z,94656.78
2019-02-02T01:01:49.758Z,94655.83
2019-02-02T01:04:17.153Z,94657.76
2019-02-02T01:06:44.542Z,94644.31
2019-02-02T01:09:11.951Z,94642.17
2019-02-02T01:11:39.354Z,94649.73
2019-02-02T01:14:06.774Z,94648.31
2019-02-02T01:16:34.167Z,94644.56
2019-02-02T01:19:01.573Z,94644.17
2019-02-02T01:21:28.977Z,94642.70
2019-02-02T01:23:56.400Z,94648.84
2019-02-02T01:26:23.829Z,94643.70
2019-02-02T01:28:51.211Z,94644.89
2019-02-02T01:31:18.610Z,94640.88
2019-02-02T01:33:46.010Z,94639.59
2019-02-02T01:36:13.419Z,94640.30
2019-02-02T01:38:40.823Z,94640.73
2019-02-02T01:41:08.247Z,94644.69
2019-02-02T01:43:35.725Z,94645.39
2019-02-02T01:46:03.138Z,94638.60
2019-02-02T01:48:30.540Z,94634.02
2019-02-02T01:50:57.948Z,94632.86
2019-02-02T01:53:25.374Z,94630.87
2019-02-02T01:55:52.802Z,94632.22
2019-02-02T01:58:20.199Z,94621.08
2019-02-02T02:00:47.601Z,94627.63
2019-02-02T02:03:14.995Z,94625.86
2019-02-02T02:05:42.405Z,94626.34
2019-02-02T02:08:09.815Z,94625.78
2019-02-02T02:10:37.243Z,94632.50
2019-02-02T02:13:04.655Z,94631.62
2019-02-02T02:15:32.052Z,94630.48
2019-02-02T02:17:59.480Z,94638.48
2019-02-02T02:20:26.886Z,94630.16
2019-02-02T02:22:54.576Z,94638.88
2019-02-02T02:25:21.957Z,94638.06
2019-02-02T02:27:49.357Z,94643.63
2019-02-02T02:30:19.474Z,94641.47
2019-02-02T02:32:46.869Z,94643.61
2019-02-02T02:35:14.308Z,94640.14
2019-02-02T02:37:41.822Z,94629.24
2019-02-02T02:40:09.214Z,94626.72
2019-02-02T02:42:36.621Z,94633.38
2019-02-02T02:45:04.024Z,94632.41
2019-02-02T02:47:31.437Z,94641.45
2019-02-02T02:49:58.860Z,94630.87
2019-02-02T02:52:26.364Z,94635.14
2019-02-02T02:54:53.757Z,94623.98
2019-02-02T02:57:21.285Z,94628.99
2019-02-02T02:59:48.662Z,94624.61
2019-02-02T03:02:16.084Z,94635.84
2019-02-02T03:04:43.623Z,94638.35
2019-02-02T03:07:11.056Z,94639.31
2019-02-02T03:09:38.434Z,94649.33
2019-02-02T03:12:05.849Z,94644.27
2019-02-02T03:14:33.282Z,94653.12
2019-02-02T03:17:00.683Z,94669.80
2019-02-02T03:19:28.201Z,94667.58
2019-02-02T03:21:55.608Z,94674.52
2019-02-02T03:24:23.013Z,94675.66
2019-02-02T03:26:50.413Z,94687.06
2019-02-02T03:29:17.814Z,94692.98
2019-02-02T03:31:48.400Z,94690.20
2019-02-02T03:34:13.551Z,94696.28
2019-02-02T03:36:40.936Z,94698.13
2019-02-02T03:39:09.409Z,94699.83
2019-02-02T03:41:36.817Z,94698.88
2019-02-02T03:44:04.371Z,94692.41
2019-02-02T03:46:31.775Z,94705.67
2019-02-02T03:48:59.216Z,94704.19
2019-02-02T03:51:26.679Z,94712.11
2019-02-02T03:53:54.095Z,94716.77
2019-02-02T03:56:21.482Z,94722.71
2019-02-02T03:58:48.909Z,94721.45
2019-02-02T04:01:16.312Z,94727.09
2019-02-02T04:03:43.724Z,94728.96
2019-02-02T04:06:11.129Z,94732.42
2019-02-02T04:08:38.741Z,94733.22
2019-02-02T04:11:06.127Z,94731.42
2019-02-02T04:13:33.879Z,94734.28
2019-02-02T04:16:01.349Z,94731.78
2019-02-02T04:18:28.805Z,94736.36
2019-02-02T04:20:56.209Z,94731.70
2019-02-02T04:23:24.317Z,94733.86
2019-02-02T04:25:51.731Z,94739.03
2019-02-02T04:28:19.262Z,94735.73
2019-02-02T04:30:46.706Z,94736.72
2019-02-02T04:33:14.166Z,94736.39
2019-02-02T04:35:41.625Z,94744.45
2019-02-02T04:38:09.006Z,94748.89
2019-02-02T04:40:36.538Z,94743.55
2019-02-02T04:43:04.040Z,94734.24
2019-02-02T04:45:31.451Z,94741.91
2019-02-02T04:47:58.923Z,94747.30
2019-02-02T04:50:26.369Z,94745.38
2019-02-02T04:52:53.786Z,94757.63
2019-02-02T04:55:21.190Z,94758.05
2019-02-02T04:57:48.597Z,94758.77
2019-02-02T05:00:16.886Z,94756.78
2019-02-02T05:02:44.436Z,94760.88
2019-02-02T05:05:11.832Z,94759.41
2019-02-02T05:07:39.407Z,94752.88
2019-02-02T05:10:07.518Z,94750.70
2019-02-02T05:12:34.919Z,94752.56
2019-02-02T05:15:02.375Z,94758.23
2019-02-02T05:17:30.118Z,94753.35
2019-02-02T05:19:57.979Z,94759.41
2019-02-02T05:22:25.421Z,94758.45
2019-02-02T05:24:53.060Z,94760.91
2019-02-02T05:27:20.456Z,94761.63
2019-02-02T05:29:48.246Z,94769.28
2019-02-02T05:32:15.653Z,94771.13
2019-02-02T05:34:43.075Z,94777.36
2019-02-02T05:37:10.483Z,94784.26
2019-02-02T05:39:37.905Z,94786.13
2019-02-02T05:42:05.454Z,94786.50
2019-02-02T05:44:32.886Z,94790.09
2019-02-02T05:47:00.345Z,94791.17
2019-02-02T05:49:27.744Z,94790.41
2019-02-02T05:51:55.325Z,94785.97
2019-02-02T05:54:22.925Z,94798.03
2019-02-02T05:56:50.395Z,94791.96
2019-02-02T05:59:17.847Z,94786.26
2019-02-02T06:01:45.235Z,94791.17
2019-02-02T06:04:12.817Z,94794.94
2019-02-02T06:06:40.169Z,94803.54
2019-02-02T06:09:07.592Z,94797.47
2019-02-02T06:11:35.014Z,94800.56
2019-02-02T06:14:02.412Z,94807.50
2019-02-02T06:16:30.042Z,94811.44
2019-02-02T06:18:57.429Z,94825.78
2019-02-02T06:21:24.864Z,94833.32
2019-02-02T06:23:52.370Z,94842.19
2019-02-02T06:26:20.661Z,94852.04
2019-02-02T06:28:48.063Z,94863.25
2019-02-02T06:31:15.617Z,94866.89
2019-02-02T06:33:43.075Z,94860.28
2019-02-02T06:36:10.531Z,94866.05
2019-02-02T06:38:37.927Z,94874.05
2019-02-02T06:41:05.341Z,94876.30
2019-02-02T06:43:32.731Z,94876.27
2019-02-02T06:46:00.155Z,94886.77
2019-02-02T06:48:27.586Z,94890.61
2019-02-02T06:50:54.974Z,94897.83
2019-02-02T06:53:22.406Z,94904.98
2019-02-02T06:55:49.806Z,94904.19
2019-02-02T06:58:17.451Z,94907.13
2019-02-02T07:00:45.201Z,94912.47
2019-02-02T07:03:12.597Z,94915.34
2019-02-02T07:05:40.009Z,94915.02
2019-02-02T07:08:07.723Z,94922.64
2019-02-02T07:10:35.191Z,94926.78
2019-02-02T07:13:03.031Z,94924.10
2019-02-02T07:15:30.529Z,94936.81
2019-02-02T07:17:58.952Z,94939.01
2019-02-02T07:20:26.416Z,94936.59
2019-02-02T07:22:53.881Z,94939.53
2019-02-02T07:25:21.304Z,94936.77
2019-02-02T07:27:48.686Z,94936.30
2019-02-02T07:30:28.597Z,94931.93
2019-02-02T07:32:52.598Z,94941.47
2019-02-02T07:35:20.098Z,94950.30
2019-02-02T07:37:47.489Z,94953.80
2019-02-02T07:40:14.899Z,94956.45
2019-02-02T07:42:42.407Z,94955.06
2019-02-02T07:45:09.936Z,94957.41
2019-02-02T07:47:37.439Z,94969.34
2019-02-02T07:50:04.894Z,94975.72
2019-02-02T07:52:33.247Z,94977.47
2019-02-02T07:55:00.772Z,94976.73
2019-02-02T07:57:28.184Z,94974.35
2019-02-02T07:59:55.586Z,94990.84
2019-02-02T08:02:23.011Z,94994.05
2019-02-02T08:04:50.497Z,94994.17
2019-02-02T08:07:18.205Z,94988.33
2019-02-02T08:09:45.632Z,94995.52
2019-02-02T08:12:13.237Z,94999.45
2019-02-02T08:14:40.626Z,95005.47
2019-02-02T08:17:08.047Z,95006.53
2019-02-02T08:19:35.448Z,95013.64
2019-02-02T08:22:03.069Z,95002.57
2019-02-02T08:24:30.828Z,95006.62
2019-02-02T08:26:58.295Z,95012.20
2019-02-02T08:29:25.820Z,95001.13
2019-02-02T08:31:53.274Z,94997.72
2019-02-02T08:34:20.656Z,95003.69
2019-02-02T08:36:48.063Z,95004.83
2019-02-02T08:39:15.481Z,95006.09
2019-02-02T08:41:42.937Z,95006.77
2019-02-02T08:44:10.443Z,95013.20
2019-02-02T08:46:38.592Z,95018.56
2019-02-02T08:49:06.397Z,95020.01
2019-02-02T08:51:33.803Z,95027.32
2019-02-02T08:54:03.355Z,95020.83
2019-02-02T08:56:28.671Z,95017.18
2019-02-02T08:58:56.090Z,95017.03
2019-02-02T09:01:23.526Z,95022.73
2019-02-02T09:03:50.937Z,95025.34
2019-02-02T09:06:18.877Z,95028.92
2019-02-02T09:08:46.273Z,95031.80
2019-02-02T09:11:13.854Z,95028.99
2019-02-02T09:13:41.430Z,95024.44
2019-02-02T09:16:08.834Z,95028.60
2019-02-02T09:18:36.228Z,95021.76
2019-02-02T09:21:03.678Z,95024.98
2019-02-02T09:23:31.068Z,95034.00
2019-02-02T09:25:58.536Z,95035.75
2019-02-02T09:28:25.934Z,95038.77
2019-02-02T09:30:53.328Z,95037.56
2019-02-02T09:33:20.774Z,95049.40
2019-02-02T09:35:48.175Z,95048.89
2019-02-02T09:38:15.627Z,95051.92
2019-02-02T09:40:43.284Z,95054.83
2019-02-02T09:43:10.706Z,95056.75
2019-02-02T09:45:38.445Z,95057.86
2019-02-02T09:48:05.870Z,95067.43
2019-02-02T09:50:33.276Z,95062.89
2019-02-02T09:53:00.669Z,95066.03
2019-02-02T09:55:28.072Z,95065.00
2019-02-02T09:57:55.681Z,95069.95
2019-02-02T10:00:23.709Z,95079.80
2019-02-02T10:02:51.133Z,95076.83
2019-02-02T10:05:19.186Z,95075.00
2019-02-02T10:07:45.992Z,95074.72
2019-02-02T10:10:14.862Z,95082.53
2019-02-02T10:12:42.275Z,95075.61
2019-02-02T10:15:09.688Z,95070.23
2019-02-02T10:17:37.274Z,95074.78
2019-02-02T10:20:04.674Z,95068.64
2019-02-02T10:22:32.445Z,95078.23
2019-02-02T10:24:59.862Z,95076.03
2019-02-02T10:27:27.259Z,95083.05
2019-02-02T10:29:54.793Z,95083.92
2019-02-02T10:32:22.166Z,95086.88
2019-02-02T10:34:49.576Z,95084.84
2019-02-02T10:37:17.128Z,95090.95
2019-02-02T10:39:44.526Z,95096.14
2019-02-02T10:42:11.955Z,95109.66
2019-02-02T10:44:39.414Z,95125.08
2019-02-02T10:47:06.829Z,95121.61
2019-02-02T10:49:34.310Z,95128.80
2019-02-02T10:52:01.709Z,95119.92
2019-02-02T10:54:29.140Z,95125.06
2019-02-02T10:56:56.535Z,95132.44
2019-02-02T10:59:24.015Z,95131.13
2019-02-02T11:01:51.508Z,95134.35
2019-02-02T11:04:19.001Z,95136.70
2019-02-02T11:06:46.457Z,95135.86
2019-02-02T11:09:13.920Z,95130.09
2019-02-02T11:11:41.351Z,95118.44
2019-02-02T11:14:08.870Z,95114.71
2019-02-02T11:16:36.287Z,95118.34
2019-02-02T11:19:03.773Z,95112.02
2019-02-02T11:21:31.102Z,95109.03
2019-02-02T11:23:58.458Z,95112.08
2019-02-02T11:26:25.901Z,95111.09
2019-02-02T11:28:53.446Z,95115.17
2019-02-02T11:31:20.894Z,95114.27
2019-02-02T11:33:48.551Z,95125.70
2019-02-02T11:36:16.061Z,95119.33
2019-02-02T11:38:43.515Z,95115.31
2019-02-02T11:41:10.925Z,95115.41
2019-02-02T11:43:38.871Z,95104.12
2019-02-02T11:46:06.449Z,95090.08
2019-02-02T11:48:33.882Z,95095.13
2019-02-02T11:51:01.454Z,95093.48
2019-02-02T11:53:28.847Z,95086.61
2019-02-02T11:55:56.268Z,95088.38
2019-02-02T11:58:23.718Z,95092.52
2019-02-02T12:00:51.117Z,95094.80
2019-02-02T12:03:18.567Z,95095.28
2019-02-02T12:05:45.984Z,95086.59
2019-02-02T12:08:13.379Z,95099.55
2019-02-02T12:10:40.901Z,95102.84
2019-02-02T12:13:08.288Z,95103.84
2019-02-02T12:15:36.023Z,95100.08
2019-02-02T12:18:03.454Z,95107.89
2019-02-02T12:20:33.283Z,95109.59
2019-02-02T12:22:58.806Z,95119.08
2019-02-02T12:25:26.221Z,95118.41
2019-02-02T12:27:53.648Z,95120.73
2019-02-02T12:30:24.352Z,95111.72
2019-02-02T12:32:51.799Z,95114.87
2019-02-02T12:35:30.453Z,95116.27
2019-02-02T12:37:57.888Z,95123.90
2019-02-02T12:40:25.286Z,95131.30
2019-02-02T12:42:52.810Z,95134.30
2019-02-02T12:45:24.392Z,95130.52
2019-02-02T12:47:51.816Z,95135.57
2019-02-02T12:50:19.376Z,95136.17
2019-02-02T12:52:46.788Z,95140.55
2019-02-02T12:55:14.239Z,95140.63
2019-02-02T12:57:41.649Z,95139.44
2019-02-02T13:00:12.410Z,95150.13
2019-02-02T13:02:39.830Z,95163.00
2019-02-02T13:05:07.308Z,95162.02
2019-02-02T13:07:34.934Z,95161.05
2019-02-02T13:10:02.334Z,95167.33
2019-02-02T13:12:29.756Z,95169.05
2019-02-02T13:14:57.245Z,95175.42
2019-02-02T13:17:24.762Z,95169.30
2019-02-02T13:19:52.299Z,95162.63
2019-02-02T13:22:19.576Z,95165.17
2019-02-02T13:24:47.102Z,95166.02
2019-02-02T13:27:15.442Z,95168.29
2019-02-02T13:29:42.985Z,95170.71
2019-02-02T13:32:10.521Z,95180.09
2019-02-02T13:34:37.920Z,95190.25
2019-02-02T13:37:05.520Z,95191.48
2019-02-02T13:39:32.968Z,95189.00
2019-02-02T13:42:00.704Z,95192.42
2019-02-02T13:44:28.110Z,95205.64
2019-02-02T13:46:55.510Z,95211.66
2019-02-02T13:49:24.003Z,95206.53
2019-02-02T13:51:51.419Z,95201.86
2019-02-02T13:54:18.819Z,95199.87
2019-02-02T13:56:46.378Z,95201.02
2019-02-02T13:59:13.832Z,95213.42
2019-02-02T14:01:42.405Z,95211.52
2019-02-02T14:04:09.235Z,95204.45
2019-02-02T14:06:36.804Z,95217.25
2019-02-02T14:09:04.296Z,95210.55
2019-02-02T14:11:31.816Z,95209.37
2019-02-02T14:13:59.288Z,95221.05
2019-02-02T14:16:26.683Z,95225.02
2019-02-02T14:18:54.207Z,95232.10
2019-02-02T14:21:22.074Z,95234.51
2019-02-02T14:23:49.485Z,95232.83
2019-02-02T14:26:17.022Z,95225.23
2019-02-02T14:28:44.434Z,95229.00
2019-02-02T14:31:11.818Z,95236.84
2019-02-02T14:33:39.232Z,95235.13
2019-02-02T14:36:06.626Z,95244.76
2019-02-02T14:38:34.137Z,95248.44
2019-02-02T14:41:01.544Z,95243.10
2019-02-02T14:43:29.169Z,95243.88
2019-02-02T14:45:56.668Z,95243.46
2019-02-02T14:48:24.916Z,95250.88
2019-02-02T14:50:52.366Z,95254.73
2019-02-02T14:53:19.834Z,95256.58
2019-02-02T14:55:47.245Z,95249.38
2019-02-02T14:58:14.736Z,95260.54
2019-02-02T15:00:42.146Z,95268.09
2019-02-02T15:03:09.558Z,95267.94
2019-02-02T15:05:43.178Z,95272.67
2019-02-02T15:08:05.098Z,95275.81
2019-02-02T15:10:32.527Z,95275.89
2019-02-02T15:13:00.062Z,95273.77
2019-02-02T15:15:27.835Z,95274.83
2019-02-02T15:17:55.235Z,95285.95
2019-02-02T15:20:24.406Z,95279.31
2019-02-02T15:22:51.853Z,95287.95
2019-02-02T15:25:19.260Z,95293.03
2019-02-02T15:27:46.674Z,95283.95
2019-02-02T15:30:16.561Z,95297.66
2019-02-02T15:32:44.055Z,95295.53
2019-02-02T15:35:14.101Z,95298.84
2019-02-02T15:37:38.957Z,95303.92
2019-02-02T15:40:06.698Z,95302.09
2019-02-02T15:42:34.234Z,95303.80
2019-02-02T15:45:01.628Z,95311.17
2019-02-02T15:47:29.024Z,95314.09
2019-02-02T15:49:56.423Z,95320.41
2019-02-02T15:52:23.836Z,95323.75
2019-02-02T15:54:51.266Z,95322.14
2019-02-02T15:57:18.675Z,95325.50
2019-02-02T15:59:46.346Z,95331.45
2019-02-02T16:02:13.763Z,95329.08
2019-02-02T16:04:41.176Z,95327.41
2019-02-02T16:07:08.645Z,95336.23
2019-02-02T16:09:36.059Z,95336.61
2019-02-02T16:12:03.469Z,95333.28
2019-02-02T16:14:30.941Z,95337.34
2019-02-02T16:16:58.373Z,95347.81
2019-02-02T16:19:25.791Z,95350.52
2019-02-02T16:21:53.210Z,95354.81
2019-02-02T16:24:20.651Z,95349.73
2019-02-02T16:26:48.724Z,95347.48
2019-02-02T16:29:15.519Z,95353.11
2019-02-02T16:31:42.926Z,95345.84
2019-02-02T16:34:10.341Z,95343.92
2019-02-02T16:36:38.019Z,95353.41
2019-02-02T16:39:05.523Z,95361.50
2019-02-02T16:41:32.996Z,95359.78
2019-02-02T16:44:00.492Z,95367.52
2019-02-02T16:46:28.001Z,95370.52
2019-02-02T16:48:55.431Z,95369.94
2019-02-02T16:51:22.871Z,95373.73
2019-02-02T16:53:50.281Z,95370.49
2019-02-02T16:56:17.760Z,95381.72
2019-02-02T16:58:45.689Z,95387.50
2019-02-02T17:01:13.110Z,95394.43
2019-02-02T17:03:40.595Z,95406.39
2019-02-02T17:06:08.051Z,95402.61
2019-02-02T17:08:35.456Z,95412.77
2019-02-02T17:11:02.868Z,95422.63
2019-02-02T17:13:30.310Z,95429.20
2019-02-02T17:15:57.744Z,95435.47
2019-02-02T17:18:25.163Z,95442.06
2019-02-02T17:20:52.613Z,95439.80
2019-02-02T17:23:20.684Z,95451.00
2019-02-02T17:25:48.141Z,95450.19
2019-02-02T17:28:15.566Z,95447.05
2019-02-02T17:30:42.969Z,95454.69
2019-02-02T17:33:10.419Z,95456.55
2019-02-02T17:35:37.960Z,95456.52
2019-02-02T17:38:05.385Z,95466.78
2019-02-02T17:40:32.831Z,95462.42
2019-02-02T17:43:00.264Z,95464.51
2019-02-02T17:45:27.799Z,95465.63
2019-02-02T17:47:55.212Z,95455.55
2019-02-02T17:50:23.440Z,95463.53
2019-02-02T17:52:51.127Z,95476.70
2019-02-02T17:55:19.056Z,95474.81
2019-02-02T17:57:46.504Z,95479.83
2019-02-02T18:00:17.107Z,95483.07
2019-02-02T18:02:45.490Z,95478.95
2019-02-02T18:05:12.895Z,95492.44
2019-02-02T18:07:40.330Z,95477.78
2019-02-02T18:10:11.316Z,95485.77
2019-02-02T18:12:38.818Z,95492.25
2019-02-02T18:15:06.211Z,95497.15
2019-02-02T18:17:33.633Z,95500.30
2019-02-02T18:20:01.103Z,95503.72
2019-02-02T18:22:28.550Z,95503.60
2019-02-02T18:24:55.983Z,95506.19
2019-02-02T18:27:23.383Z,95515.42
2019-02-02T18:29:50.814Z,95515.69
2019-02-02T18:32:18.279Z,95516.75
2019-02-02T18:34:51.355Z,95526.59
2019-02-02T18:37:13.184Z,95521.94
2019-02-02T18:39:40.615Z,95526.71
2019-02-02T18:42:08.140Z,95531.04
2019-02-02T18:44:35.844Z,95532.92
2019-02-02T18:47:03.513Z,95538.19
2019-02-02T18:49:31.027Z,95539.43
2019-02-02T18:51:58.428Z,95542.77
2019-02-02T18:54:25.856Z,95544.30
2019-02-02T18:56:53.288Z,95541.89
2019-02-02T18:59:20.711Z,95549.25
2019-02-02T19:01:48.162Z,95551.91
2019-02-02T19:04:15.606Z,95561.42
2019-02-02T19:06:43.175Z,95557.27
2019-02-02T19:09:10.601Z,95552.22
2019-02-02T19:11:38.002Z,95556.32
2019-02-02T19:14:05.399Z,95560.83
2019-02-02T19:16:32.813Z,95567.63
2019-02-02T19:19:00.371Z,95572.56
2019-02-02T19:21:27.953Z,95572.12
2019-02-02T19:23:55.501Z,95575.13
2019-02-02T19:26:22.939Z,95579.16
2019-02-02T19:28:50.406Z,95582.34
2019-02-02T19:31:17.895Z,95583.05
2019-02-02T19:33:45.362Z,95577.42
2019-02-02T19:36:12.910Z,95577.92
2019-02-02T19:38:40.310Z,95584.49
2019-02-02T19:41:07.717Z,95586.67
2019-02-02T19:43:35.124Z,95593.95
2019-02-02T19:46:02.555Z,95595.61
2019-02-02T19:48:29.948Z,95601.53
2019-02-02T19:50:57.397Z,95612.59
2019-02-02T19:53:24.818Z,95602.92
2019-02-02T19:55:52.243Z,95611.92
2019-02-02T19:58:19.736Z,95616.58
2019-02-02T20:00:47.189Z,95621.17
2019-02-02T20:03:15.467Z,95621.00
2019-02-02T20:05:42.910Z,95630.46
2019-02-02T20:08:10.337Z,95634.77
2019-02-02T20:10:37.744Z,95636.00
2019-02-02T20:13:05.233Z,95638.33
2019-02-02T20:15:32.587Z,95639.69
2019-02-02T20:18:09.383Z,95648.42
2019-02-02T20:20:27.428Z,95644.17
2019-02-02T20:22:54.828Z,95651.06
2019-02-02T20:25:22.314Z,95653.80
2019-02-02T20:27:49.691Z,95656.67
2019-02-02T20:30:19.742Z,95668.75
2019-02-02T20:32:47.186Z,95668.20
2019-02-02T20:35:14.595Z,95678.34
2019-02-02T20:37:42.083Z,95683.81
2019-02-02T20:40:10.162Z,95682.38
2019-02-02T20:42:37.649Z,95690.23
2019-02-02T20:45:05.209Z,95692.05
2019-02-02T20:47:32.652Z,95688.22
2019-02-02T20:50:00.101Z,95695.66
2019-02-02T20:52:27.525Z,95685.66
2019-02-02T20:54:54.994Z,95703.25
2019-02-02T20:57:22.440Z,95703.16
2019-02-02T20:59:49.873Z,95710.66
2019-02-02T21:02:17.861Z,95718.64
2019-02-02T21:04:45.346Z,95724.18
2019-02-02T21:07:12.758Z,95726.42
2019-02-02T21:09:40.171Z,95730.30
2019-02-02T21:12:07.610Z,95731.81
2019-02-02T21:14:35.010Z,95724.35
2019-02-02T21:17:02.433Z,95730.09
2019-02-02T21:19:29.834Z,95734.25
2019-02-02T21:21:57.335Z,95734.63
2019-02-02T21:24:24.737Z,95735.13
2019-02-02T21:26:52.256Z,95750.70
2019-02-02T21:29:19.934Z,95745.72
2019-02-02T21:31:47.094Z,95751.79
2019-02-02T21:34:14.623Z,95753.93
2019-02-02T21:36:43.105Z,95754.34
2019-02-02T21:39:10.517Z,95761.31
2019-02-02T21:41:38.020Z,95760.96
2019-02-02T21:44:05.456Z,95762.94
2019-02-02T21:46:32.861Z,95764.80
2019-02-02T21:49:00.389Z,95760.56
2019-02-02T21:51:27.817Z,95771.65
2019-02-02T21:53:55.246Z,95775.30
2019-02-02T21:56:22.673Z,95779.52
2019-02-02T21:58:50.070Z,95780.81
2019-02-02T22:01:24.138Z,95789.28
2019-02-02T22:03:44.947Z,95786.83
2019-02-02T22:06:15.597Z,95790.77
2019-02-02T22:08:40.003Z,95789.39
2019-02-02T22:11:07.429Z,95793.78
2019-02-02T22:13:35.361Z,95792.06
2019-02-02T22:16:02.823Z,95805.27
2019-02-02T22:18:30.231Z,95804.30
2019-02-02T22:20:57.670Z,95804.83
2019-02-02T22:23:25.079Z,95811.11
2019-02-02T22:25:52.640Z,95811.59
2019-02-02T22:28:20.061Z,95814.13
2019-02-02T22:30:47.601Z,95825.74
2019-02-02T22:33:14.991Z,95824.00
2019-02-02T22:35:42.430Z,95833.94
2019-02-02T22:38:09.925Z,95837.67
2019-02-02T22:40:37.404Z,95836.67
2019-02-02T22:43:04.841Z,95835.48
2019-02-02T22:45:32.242Z,95837.11
2019-02-02T22:47:59.814Z,95844.58
2019-02-02T22:50:27.242Z,95853.23
2019-02-02T22:52:54.719Z,95868.52
2019-02-02T22:55:22.501Z,95863.73
2019-02-02T22:57:49.923Z,95867.34
2019-02-02T23:00:24.969Z,95867.63
2019-02-02T23:02:53.389Z,95870.73
2019-02-02T23:05:24.272Z,95876.34
2019-02-02T23:07:51.673Z,95878.02
2019-02-02T23:10:20.090Z,95889.61
2019-02-02T23:12:57.022Z,95897.25
2019-02-02T23:15:32.472Z,95898.52
2019-02-02T23:17:59.985Z,95900.70
2019-02-02T23:20:27.376Z,95900.57
2019-02-02T23:22:54.802Z,95909.23
2019-02-02T23:25:22.190Z,95910.66
2019-02-02T23:27:49.600Z,95921.39
2019-02-02T23:30:17.336Z,95921.70
2019-02-02T23:32:44.716Z,95924.96
2019-02-02T23:35:12.470Z,95920.17
2019-02-02T23:37:40.033Z,95932.25
2019-02-02T23:40:15.283Z,95938.57
2019-02-02T23:42:42.683Z,95934.03
2019-02-02T23:45:10.083Z,95933.39
2019-02-02T23:47:37.551Z,95936.19
2019-02-02T23:50:05.618Z,95947.95
2019-02-02T23:52:33.027Z,95946.05
2019-02-02T23:55:00.431Z,95946.27
2019-02-02T23:57:27.841Z,95948.93
2019-02-02T23:59:55.239Z,95946.83
